Time;durP1;ratioP1;P1;durP2;ratioP2;P2;SDS_P1;SDS_P2;PMS_P1;PMS_P2;Temp;Humidity;BMP_temperature;BMP_pressure;BME280_temperature;BME280_humidity;BME280_pressure;Samples;Min_cycle;Max_cycle;Signal;HPM_P1;HPM_P2
2022/12/29 00:01:19;;;;;;;7.93;1.93;;;7.60;99.90;;;;;;5262927;28;20177;-49
2022/12/29 00:03:50;;;;;;;2.43;1.77;;;7.70;99.90;;;;;;5259621;28;20466;-51
2022/12/29 00:06:20;;;;;;;1.30;1.30;;;7.90;99.90;;;;;;5266807;28;20190;-52
2022/12/29 00:08:51;;;;;;;2.87;1.77;;;7.90;99.90;;;;;;5263622;28;20213;-52
2022/12/29 00:11:24;;;;;;;2.67;2.57;;;7.90;99.90;;;;;;5268533;28;20235;-51
2022/12/29 00:16:45;;;;;;;1.60;1.50;;;7.90;99.90;;;;;;5261591;28;20469;-50
2022/12/29 00:36:28;;;;;;;1.33;1.33;;;7.90;99.90;;;;;;5266822;28;20827;-52
2022/12/29 00:44:45;;;;;;;1.30;1.30;;;7.90;99.90;;;;;;5269421;28;20435;-51
2022/12/29 00:47:16;;;;;;;3.70;1.63;;;7.80;99.90;;;;;;5264724;28;20805;-51
2022/12/29 00:49:46;;;;;;;1.47;1.37;;;7.80;99.90;;;;;;5270590;28;20192;-49
2022/12/29 00:52:17;;;;;;;3.50;2.13;;;7.90;99.90;;;;;;5250151;28;20630;-51
2022/12/29 00:54:48;;;;;;;2.00;1.47;;;7.80;99.90;;;;;;5247765;28;20262;-52
2022/12/29 00:57:19;;;;;;;3.10;1.67;;;7.80;99.90;;;;;;5263556;28;20218;-52
2022/12/29 00:59:49;;;;;;;2.63;2.20;;;7.80;99.90;;;;;;5264111;28;20583;-52
2022/12/29 01:02:20;;;;;;;1.57;1.47;;;7.70;99.90;;;;;;5264153;28;20595;-51
2022/12/29 01:04:51;;;;;;;2.60;2.40;;;7.70;99.90;;;;;;5258504;28;20293;-52
2022/12/29 01:07:21;;;;;;;2.07;2.00;;;7.60;99.90;;;;;;5258991;28;20221;-51
2022/12/29 01:10:10;;;;;;;3.23;2.10;;;7.60;99.90;;;;;;5244527;28;20187;-51
2022/12/29 01:12:41;;;;;;;1.73;1.63;;;7.60;99.90;;;;;;5261692;28;20228;-50
2022/12/29 01:15:14;;;;;;;1.23;1.23;;;7.60;99.90;;;;;;5258197;28;20491;-50
2022/12/29 01:17:45;;;;;;;5.13;1.90;;;7.60;99.90;;;;;;5258352;28;20289;-51
2022/12/29 01:20:16;;;;;;;1.60;1.50;;;7.70;99.90;;;;;;5266934;28;20522;-51
2022/12/29 01:22:47;;;;;;;1.93;1.80;;;7.70;99.90;;;;;;5260357;28;20849;-51
2022/12/29 01:25:17;;;;;;;2.20;1.17;;;7.70;99.90;;;;;;5257003;28;20190;-50
2022/12/29 01:27:48;;;;;;;1.20;1.20;;;7.90;99.90;;;;;;5265431;28;20209;-51
2022/12/29 01:30:19;;;;;;;1.70;1.20;;;7.80;99.90;;;;;;5263557;28;20182;-49
2022/12/29 01:32:49;;;;;;;2.20;1.20;;;7.80;99.90;;;;;;5255570;28;20615;-49
2022/12/29 01:35:20;;;;;;;1.33;1.27;;;7.80;99.90;;;;;;5260227;28;20638;-48
2022/12/29 01:37:51;;;;;;;1.20;1.20;;;7.80;99.90;;;;;;5278103;28;20194;-51
2022/12/29 01:40:22;;;;;;;1.10;1.10;;;7.90;99.90;;;;;;5259226;28;20578;-51
2022/12/29 01:42:52;;;;;;;1.50;1.50;;;7.80;99.90;;;;;;5255602;28;20204;-52
2022/12/29 01:45:23;;;;;;;1.57;1.47;;;7.80;99.90;;;;;;5263378;28;20192;-52
2022/12/29 01:48:01;;;;;;;1.57;1.47;;;7.80;99.90;;;;;;5266024;28;20575;-50
2022/12/29 01:50:35;;;;;;;1.30;1.30;;;7.80;99.90;;;;;;5257756;28;20974;-51
2022/12/29 01:53:18;;;;;;;1.30;1.20;;;7.80;99.90;;;;;;5250383;28;20489;-51
2022/12/29 01:55:53;;;;;;;0.90;0.90;;;7.90;99.90;;;;;;5266530;28;20492;-51
2022/12/29 01:58:29;;;;;;;3.30;1.83;;;7.80;99.90;;;;;;5261235;28;20462;-47
2022/12/29 02:01:00;;;;;;;1.90;1.40;;;7.80;99.90;;;;;;5261389;28;20442;-47
2022/12/29 02:03:32;;;;;;;3.03;1.43;;;7.80;99.90;;;;;;5255080;28;20439;-50
2022/12/29 02:06:12;;;;;;;1.60;1.50;;;7.80;99.90;;;;;;5261159;28;20170;-49
2022/12/29 02:08:46;;;;;;;1.70;1.60;;;7.70;99.90;;;;;;5265283;28;21085;-47
2022/12/29 02:11:18;;;;;;;2.27;2.17;;;7.70;99.90;;;;;;5267700;28;20902;-47
2022/12/29 02:13:49;;;;;;;1.97;1.50;;;7.70;99.90;;;;;;5259400;28;20459;-51
2022/12/29 02:16:38;;;;;;;1.60;1.50;;;7.60;99.90;;;;;;5262999;28;20512;-48
2022/12/29 02:19:17;;;;;;;2.60;2.10;;;7.50;99.90;;;;;;5255359;28;20447;-48
2022/12/29 02:22:05;;;;;;;1.83;1.37;;;7.50;99.90;;;;;;5255794;28;20436;-50
2022/12/29 02:24:45;;;;;;;3.00;2.70;;;7.50;99.90;;;;;;5267376;28;20534;-49
2022/12/29 02:27:24;;;;;;;2.67;2.47;;;7.50;99.90;;;;;;5261461;28;20998;-47
2022/12/29 02:30:12;;;;;;;4.30;2.97;;;7.60;99.90;;;;;;5257813;28;20452;-48
2022/12/29 02:33:09;;;;;;;5.20;2.10;;;7.60;99.90;;;;;;5267318;28;20450;-50
2022/12/29 02:35:51;;;;;;;2.13;2.03;;;7.60;99.90;;;;;;5262576;28;20420;-48
2022/12/29 02:38:28;;;;;;;1.50;1.50;;;7.60;99.90;;;;;;5258161;28;20456;-48
2022/12/29 02:41:10;;;;;;;6.73;3.77;;;7.70;99.90;;;;;;5270353;28;20407;-48
2022/12/29 02:43:43;;;;;;;3.33;2.77;;;7.70;99.90;;;;;;5261566;28;20458;-48
2022/12/29 02:46:49;;;;;;;3.50;3.20;;;7.80;99.90;;;;;;5268201;28;20428;-48
2022/12/29 02:49:33;;;;;;;2.50;2.40;;;7.80;99.90;;;;;;5262831;28;20951;-49
2022/12/29 02:52:15;;;;;;;2.03;2.03;;;7.80;99.90;;;;;;5268339;28;20474;-48
2022/12/29 02:54:49;;;;;;;3.80;2.90;;;7.90;99.90;;;;;;5266801;28;20487;-48
2022/12/29 02:57:23;;;;;;;3.03;1.80;;;7.90;99.90;;;;;;5257068;28;20460;-51
2022/12/29 03:00:15;;;;;;;3.10;2.33;;;8.00;99.90;;;;;;5267533;28;20440;-48
2022/12/29 03:02:45;;;;;;;4.73;2.30;;;8.00;99.90;;;;;;5266828;28;20419;-48
2022/12/29 03:05:33;;;;;;;6.87;2.30;;;8.00;99.90;;;;;;5262318;28;20509;-48
2022/12/29 03:08:04;;;;;;;4.60;2.33;;;8.10;99.90;;;;;;5268062;28;20204;-48
2022/12/29 03:11:00;;;;;;;4.00;1.80;;;8.10;99.90;;;;;;5262922;28;20431;-48
2022/12/29 03:17:14;;;;;;;4.53;2.23;;;8.20;99.90;;;;;;5265779;28;20434;-48
2022/12/29 03:19:49;;;;;;;4.97;2.37;;;8.30;99.90;;;;;;5248017;28;20775;-47
2022/12/29 03:22:27;;;;;;;1.90;1.80;;;8.30;99.90;;;;;;5269782;28;20455;-48
2022/12/29 03:25:15;;;;;;;2.70;2.00;;;8.40;99.90;;;;;;5282059;28;20516;-48
2022/12/29 03:27:57;;;;;;;2.33;1.80;;;8.50;99.90;;;;;;5266860;28;21053;-48
2022/12/29 03:30:30;;;;;;;1.70;1.60;;;8.50;99.90;;;;;;5259179;28;20430;-48
2022/12/29 03:33:04;;;;;;;1.87;1.70;;;8.50;99.90;;;;;;5265462;28;20494;-48
2022/12/29 03:35:38;;;;;;;3.10;2.73;;;8.60;99.90;;;;;;5253404;28;20430;-50
2022/12/29 03:38:25;;;;;;;2.43;1.90;;;8.60;99.90;;;;;;5266010;28;20467;-51
2022/12/29 03:40:58;;;;;;;2.00;1.80;;;8.60;99.90;;;;;;5271096;28;20517;-48
2022/12/29 03:43:29;;;;;;;1.70;1.60;;;8.60;99.90;;;;;;5271166;28;20482;-47
2022/12/29 03:46:00;;;;;;;1.77;1.63;;;8.70;99.90;;;;;;5269864;28;20561;-48
2022/12/29 03:48:32;;;;;;;2.07;1.30;;;8.70;99.90;;;;;;5265589;28;20542;-49
2022/12/29 03:51:03;;;;;;;2.13;1.90;;;8.70;99.90;;;;;;5265151;28;20184;-50
2022/12/29 03:53:34;;;;;;;2.90;2.60;;;8.70;99.90;;;;;;5260814;28;20463;-48
2022/12/29 03:56:04;;;;;;;1.40;1.40;;;8.70;99.90;;;;;;5258992;28;20208;-48
2022/12/29 03:58:35;;;;;;;1.20;1.20;;;8.70;99.90;;;;;;5266957;28;20210;-52
2022/12/29 04:01:06;;;;;;;1.40;1.40;;;8.80;99.90;;;;;;5268009;28;20185;-48
2022/12/29 04:03:37;;;;;;;1.40;1.30;;;8.80;99.90;;;;;;5263085;28;20262;-49
2022/12/29 04:06:07;;;;;;;2.03;1.80;;;8.80;99.90;;;;;;5262607;28;20542;-48
2022/12/29 04:08:38;;;;;;;2.57;1.23;;;8.90;99.90;;;;;;5267608;28;20201;-49
2022/12/29 04:11:09;;;;;;;1.20;1.20;;;8.90;99.90;;;;;;5269584;28;20638;-48
2022/12/29 04:13:40;;;;;;;1.33;1.23;;;8.90;99.90;;;;;;5266348;28;20251;-50
2022/12/29 04:16:12;;;;;;;1.00;1.00;;;8.90;99.90;;;;;;5263991;28;20185;-49
2022/12/29 04:18:42;;;;;;;0.97;0.97;;;9.00;99.90;;;;;;5266050;28;20451;-50
2022/12/29 04:21:13;;;;;;;1.20;1.20;;;8.90;99.90;;;;;;5258279;28;20478;-50
2022/12/29 04:23:44;;;;;;;1.47;1.33;;;8.90;99.90;;;;;;5266307;28;20642;-50
2022/12/29 04:26:14;;;;;;;1.30;1.30;;;8.90;99.90;;;;;;5264582;28;20173;-50
2022/12/29 04:28:45;;;;;;;1.87;1.77;;;9.00;99.90;;;;;;5262466;28;20248;-48
2022/12/29 04:31:16;;;;;;;0.80;0.80;;;9.00;99.90;;;;;;5261603;28;20260;-50
2022/12/29 04:33:46;;;;;;;1.23;1.23;;;9.00;99.90;;;;;;5266024;28;20225;-50
2022/12/29 04:36:17;;;;;;;1.47;1.47;;;9.10;99.90;;;;;;5263521;28;20178;-49
2022/12/29 04:38:48;;;;;;;1.37;1.07;;;9.00;99.90;;;;;;5264904;28;20236;-49
2022/12/29 04:41:18;;;;;;;1.50;1.40;;;9.00;99.90;;;;;;5265460;28;20228;-50
2022/12/29 04:43:49;;;;;;;1.80;1.40;;;9.10;99.90;;;;;;5263106;28;20217;-49
2022/12/29 04:46:20;;;;;;;2.00;1.77;;;9.10;99.90;;;;;;5260329;28;20186;-49
2022/12/29 04:48:50;;;;;;;2.33;1.47;;;9.10;99.90;;;;;;5261900;28;20202;-50
2022/12/29 04:51:21;;;;;;;3.57;1.37;;;9.10;99.90;;;;;;5262321;28;20240;-50
2022/12/29 04:53:52;;;;;;;1.80;1.70;;;9.00;99.90;;;;;;5255147;28;20206;-48
2022/12/29 04:56:23;;;;;;;1.47;1.10;;;9.00;99.90;;;;;;5263903;28;20432;-49
2022/12/29 04:58:54;;;;;;;1.17;1.17;;;9.00;99.90;;;;;;5266408;28;20271;-49
2022/12/29 05:01:24;;;;;;;1.17;1.17;;;9.00;99.90;;;;;;5263805;28;20672;-50
2022/12/29 05:03:55;;;;;;;1.30;1.30;;;9.00;99.90;;;;;;5254961;28;20186;-49
2022/12/29 05:06:26;;;;;;;1.87;1.30;;;9.00;99.90;;;;;;5260806;28;20232;-49
2022/12/29 05:08:56;;;;;;;0.90;0.90;;;9.00;99.90;;;;;;5260746;28;20200;-50
2022/12/29 05:11:27;;;;;;;1.40;1.40;;;9.00;99.90;;;;;;5260482;28;20186;-49
2022/12/29 05:13:58;;;;;;;5.80;2.07;;;9.00;99.90;;;;;;5249867;28;20213;-49
2022/12/29 05:16:28;;;;;;;1.00;0.90;;;9.00;99.90;;;;;;5260661;28;20177;-49
2022/12/29 05:18:59;;;;;;;0.87;0.87;;;9.10;99.90;;;;;;5268578;28;20583;-50
2022/12/29 05:21:30;;;;;;;2.00;1.10;;;9.20;99.90;;;;;;5263291;28;20524;-50
2022/12/29 05:24:00;;;;;;;1.70;1.37;;;9.10;99.90;;;;;;5268019;28;20177;-50
2022/12/29 05:26:31;;;;;;;3.03;1.00;;;9.30;99.90;;;;;;5261562;28;20185;-49
2022/12/29 05:29:03;;;;;;;1.43;1.43;;;9.20;99.90;;;;;;5251794;28;20199;-50
2022/12/29 05:31:35;;;;;;;0.90;0.90;;;9.20;99.90;;;;;;5257949;28;20170;-49
2022/12/29 05:34:06;;;;;;;1.03;0.77;;;9.30;99.90;;;;;;5260982;28;20462;-50
2022/12/29 05:36:37;;;;;;;1.07;0.97;;;9.30;99.90;;;;;;5263862;28;20929;-50
2022/12/29 05:39:07;;;;;;;0.90;0.90;;;9.10;99.90;;;;;;5258806;28;20263;-50
2022/12/29 05:41:38;;;;;;;1.47;1.37;;;9.20;99.90;;;;;;5259642;28;20434;-50
2022/12/29 05:44:10;;;;;;;1.60;1.33;;;9.40;99.90;;;;;;5263026;28;20178;-50
2022/12/29 05:46:41;;;;;;;0.90;0.90;;;9.40;99.90;;;;;;5260964;28;20194;-49
2022/12/29 05:49:12;;;;;;;1.80;1.40;;;9.30;99.90;;;;;;5252615;28;20459;-50
2022/12/29 05:51:42;;;;;;;0.70;0.70;;;9.40;99.90;;;;;;5264315;28;20180;-50
2022/12/29 05:54:13;;;;;;;1.10;1.10;;;9.40;99.90;;;;;;5257274;28;20618;-50
2022/12/29 05:56:44;;;;;;;5.93;1.20;;;9.50;99.90;;;;;;5268240;28;20200;-49
2022/12/29 05:59:15;;;;;;;1.97;1.47;;;9.50;99.90;;;;;;5263283;28;20239;-49
2022/12/29 06:01:45;;;;;;;1.50;1.40;;;9.50;99.90;;;;;;5260604;28;20174;-49
2022/12/29 06:04:16;;;;;;;1.10;1.10;;;9.60;99.90;;;;;;5255462;28;20559;-49
2022/12/29 06:06:47;;;;;;;2.40;1.63;;;9.60;99.90;;;;;;5253396;28;20178;-49
2022/12/29 06:09:18;;;;;;;3.03;1.10;;;9.60;99.90;;;;;;5258543;28;20456;-49
2022/12/29 06:11:48;;;;;;;1.23;1.20;;;9.60;99.90;;;;;;5250651;28;20197;-49
2022/12/29 06:14:20;;;;;;;1.20;1.10;;;9.60;99.90;;;;;;5254010;28;20216;-49
2022/12/29 06:16:50;;;;;;;1.20;1.10;;;9.60;99.90;;;;;;5260358;28;20177;-50
2022/12/29 06:19:21;;;;;;;1.90;1.23;;;9.60;99.90;;;;;;5261898;28;20468;-49
2022/12/29 06:21:52;;;;;;;1.10;1.10;;;9.70;99.90;;;;;;5265019;28;20287;-49
2022/12/29 06:24:23;;;;;;;1.00;1.00;;;9.70;99.90;;;;;;5263364;28;21854;-51
2022/12/29 06:26:54;;;;;;;3.13;1.67;;;9.70;99.90;;;;;;5258732;28;20741;-49
2022/12/29 06:29:25;;;;;;;0.90;0.90;;;9.70;99.90;;;;;;5262251;28;20705;-51
2022/12/29 06:31:58;;;;;;;1.73;1.63;;;9.70;99.90;;;;;;5261008;28;20658;-49
2022/12/29 06:34:29;;;;;;;0.90;0.90;;;9.70;99.90;;;;;;5259375;28;20632;-50
2022/12/29 06:37:00;;;;;;;1.80;1.20;;;9.80;99.90;;;;;;5259322;28;20447;-50
2022/12/29 06:39:31;;;;;;;3.70;1.40;;;9.80;99.90;;;;;;5264609;28;20266;-51
2022/12/29 06:42:03;;;;;;;1.30;1.20;;;9.80;99.90;;;;;;5274304;28;21010;-50
2022/12/29 06:44:33;;;;;;;2.53;2.43;;;9.80;99.90;;;;;;5265693;28;20182;-50
2022/12/29 06:47:04;;;;;;;1.70;1.60;;;9.80;99.90;;;;;;5270748;28;20438;-50
2022/12/29 06:49:35;;;;;;;3.37;3.10;;;9.90;99.90;;;;;;5272810;28;20207;-49
2022/12/29 06:52:05;;;;;;;1.10;1.10;;;9.90;99.90;;;;;;5268421;28;20256;-51
2022/12/29 06:54:36;;;;;;;1.43;1.43;;;9.90;99.90;;;;;;5268600;28;20214;-50
2022/12/29 06:57:07;;;;;;;2.93;1.63;;;9.90;99.90;;;;;;5265247;28;20659;-50
2022/12/29 06:59:38;;;;;;;1.83;1.40;;;9.90;99.90;;;;;;5265681;28;20621;-50
2022/12/29 07:02:11;;;;;;;1.40;1.30;;;9.90;99.90;;;;;;5268580;28;20188;-50
2022/12/29 07:04:41;;;;;;;3.83;1.13;;;9.90;99.90;;;;;;5266645;28;20449;-49
2022/12/29 07:07:12;;;;;;;2.30;1.07;;;9.90;99.90;;;;;;5267771;28;20535;-49
2022/12/29 07:09:43;;;;;;;1.53;1.47;;;9.80;99.90;;;;;;5266494;28;20189;-51
2022/12/29 07:12:14;;;;;;;1.90;1.80;;;9.80;99.90;;;;;;5271833;28;20565;-51
2022/12/29 07:14:45;;;;;;;2.77;1.47;;;9.80;99.90;;;;;;5269754;28;20214;-49
2022/12/29 07:17:15;;;;;;;1.20;1.20;;;9.80;99.90;;;;;;5270933;28;20490;-47
2022/12/29 07:19:46;;;;;;;1.53;1.53;;;9.60;99.90;;;;;;5269019;28;20190;-48
2022/12/29 07:22:17;;;;;;;1.03;1.03;;;9.60;99.90;;;;;;5272150;28;20268;-49
2022/12/29 07:24:47;;;;;;;2.30;0.90;;;9.50;99.90;;;;;;5272446;28;20200;-49
2022/12/29 07:27:18;;;;;;;6.90;1.10;;;9.60;99.90;;;;;;5271129;28;20333;-49
2022/12/29 07:29:49;;;;;;;0.77;0.77;;;9.60;99.90;;;;;;5268612;28;20584;-48
2022/12/29 07:32:20;;;;;;;2.97;1.57;;;9.70;99.90;;;;;;5272654;28;20185;-49
2022/12/29 07:34:52;;;;;;;1.23;1.17;;;9.60;99.90;;;;;;5268837;28;20196;-48
2022/12/29 07:37:23;;;;;;;1.13;1.03;;;9.60;99.90;;;;;;5271022;28;20202;-49
2022/12/29 07:39:53;;;;;;;1.50;1.40;;;9.60;99.90;;;;;;5258392;28;20819;-49
2022/12/29 07:42:24;;;;;;;0.87;0.77;;;9.60;99.90;;;;;;5268867;28;20185;-49
2022/12/29 07:44:55;;;;;;;1.03;1.03;;;9.60;99.90;;;;;;5268798;28;20215;-49
2022/12/29 07:47:26;;;;;;;1.13;1.13;;;9.60;99.90;;;;;;5270291;28;20575;-49
2022/12/29 07:49:56;;;;;;;1.90;1.13;;;9.70;99.90;;;;;;5267128;28;20190;-49
2022/12/29 07:52:27;;;;;;;1.23;1.23;;;9.70;99.90;;;;;;5261264;28;20446;-49
2022/12/29 07:54:58;;;;;;;0.90;0.90;;;9.80;99.90;;;;;;5261877;28;20267;-47
2022/12/29 07:57:29;;;;;;;1.43;1.43;;;9.80;99.90;;;;;;5268069;28;20193;-50
2022/12/29 07:59:59;;;;;;;2.30;1.50;;;9.90;99.90;;;;;;5261661;28;20536;-48
2022/12/29 08:02:30;;;;;;;0.80;0.80;;;10.00;99.90;;;;;;5261972;28;20320;-49
2022/12/29 08:05:01;;;;;;;1.10;1.10;;;10.10;99.90;;;;;;5263434;28;20186;-50
2022/12/29 08:07:32;;;;;;;0.70;0.70;;;10.10;99.90;;;;;;5252671;28;20259;-48
2022/12/29 08:10:03;;;;;;;0.90;0.90;;;10.20;99.90;;;;;;5267404;28;20259;-48
2022/12/29 08:12:34;;;;;;;1.30;1.20;;;10.30;99.90;;;;;;5264021;28;20182;-48
2022/12/29 08:15:06;;;;;;;1.03;1.03;;;10.20;99.90;;;;;;5269541;28;20467;-53
2022/12/29 08:17:37;;;;;;;6.07;1.50;;;10.30;99.90;;;;;;5259622;28;20201;-47
2022/12/29 08:20:08;;;;;;;2.00;1.50;;;10.30;99.90;;;;;;5256796;28;20444;-48
2022/12/29 08:22:40;;;;;;;1.97;1.87;;;10.40;99.90;;;;;;5259515;28;21032;-49
2022/12/29 08:25:11;;;;;;;1.03;1.03;;;10.50;99.90;;;;;;5248454;28;20455;-48
2022/12/29 08:27:42;;;;;;;0.87;0.87;;;10.50;99.90;;;;;;5265122;28;20452;-49
2022/12/29 08:30:13;;;;;;;0.77;0.77;;;10.50;99.90;;;;;;5263783;28;20528;-48
2022/12/29 08:32:44;;;;;;;6.43;1.40;;;10.50;99.90;;;;;;5260655;28;20501;-48
2022/12/29 08:35:14;;;;;;;4.00;1.90;;;10.40;99.90;;;;;;5256395;28;20463;-49
2022/12/29 08:37:45;;;;;;;1.17;1.17;;;10.30;99.90;;;;;;5263283;28;20197;-48
2022/12/29 08:40:16;;;;;;;9.50;1.07;;;10.20;99.90;;;;;;5257813;28;20201;-49
2022/12/29 08:42:46;;;;;;;1.30;1.27;;;10.10;99.90;;;;;;5264836;28;20188;-47
2022/12/29 08:45:17;;;;;;;1.00;1.00;;;10.00;99.90;;;;;;5262112;28;20185;-48
2022/12/29 08:47:48;;;;;;;1.90;0.90;;;10.00;99.90;;;;;;5270563;28;20218;-48
2022/12/29 08:50:18;;;;;;;2.00;1.53;;;10.00;99.90;;;;;;5265093;28;20197;-52
2022/12/29 08:52:49;;;;;;;1.37;1.30;;;10.20;99.90;;;;;;5265675;28;20727;-48
2022/12/29 08:55:20;;;;;;;1.20;1.20;;;10.20;99.90;;;;;;5245715;28;20286;-49
2022/12/29 08:57:51;;;;;;;1.60;1.50;;;10.20;99.90;;;;;;5265881;28;21114;-49
2022/12/29 09:00:22;;;;;;;0.77;0.77;;;10.40;99.90;;;;;;5264899;28;20181;-48
2022/12/29 09:02:53;;;;;;;3.37;0.77;;;10.40;99.90;;;;;;5268131;28;20429;-48
2022/12/29 09:05:24;;;;;;;3.03;1.43;;;10.40;99.90;;;;;;5265879;28;20185;-48
2022/12/29 09:07:54;;;;;;;1.17;1.17;;;10.50;99.90;;;;;;5268975;28;20193;-48
2022/12/29 09:10:25;;;;;;;1.30;1.30;;;10.60;99.90;;;;;;5263408;28;20186;-47
2022/12/29 09:12:56;;;;;;;2.00;1.30;;;10.70;99.90;;;;;;5260979;28;20177;-49
2022/12/29 09:15:27;;;;;;;2.03;1.83;;;10.80;99.90;;;;;;5268137;28;20220;-48
2022/12/29 09:17:58;;;;;;;2.00;1.50;;;10.80;99.90;;;;;;5264964;28;20202;-51
2022/12/29 09:20:29;;;;;;;1.80;1.70;;;10.80;99.90;;;;;;5258925;28;20201;-48
2022/12/29 09:22:59;;;;;;;4.10;1.90;;;10.80;99.90;;;;;;5260523;28;20181;-48
2022/12/29 09:25:30;;;;;;;1.77;1.67;;;10.80;99.90;;;;;;5266392;28;20435;-49
2022/12/29 09:28:05;;;;;;;1.33;1.07;;;10.80;99.90;;;;;;5261927;28;20609;-47
2022/12/29 09:30:36;;;;;;;7.60;5.17;;;10.90;99.90;;;;;;5262805;28;20221;-53
2022/12/29 09:33:07;;;;;;;1.87;1.77;;;10.80;99.90;;;;;;5260129;28;20443;-48
2022/12/29 09:35:42;;;;;;;3.73;2.40;;;10.80;99.90;;;;;;5267309;28;20285;-52
2022/12/29 09:38:15;;;;;;;7.63;4.60;;;10.80;99.90;;;;;;5264252;28;20746;-50
2022/12/29 09:40:57;;;;;;;10.37;5.37;;;10.80;99.90;;;;;;5269598;28;20994;-49
2022/12/29 09:43:53;;;;;;;5.83;4.40;;;10.90;99.90;;;;;;5270072;28;20443;-48
2022/12/29 09:46:31;;;;;;;3.40;3.10;;;10.90;99.90;;;;;;5266509;28;20450;-48
2022/12/29 09:49:02;;;;;;;5.00;2.40;;;10.90;99.90;;;;;;5268089;28;20459;-51
2022/12/29 09:51:35;;;;;;;4.73;3.57;;;10.80;99.90;;;;;;5281332;27;20439;-47
2022/12/29 09:54:31;;;;;;;6.03;4.93;;;11.00;99.90;;;;;;5265729;28;20674;-48
2022/12/29 09:57:03;;;;;;;5.10;2.60;;;11.10;99.90;;;;;;5245602;28;20437;-47
2022/12/29 09:59:41;;;;;;;2.40;2.30;;;11.10;99.90;;;;;;5261220;28;20443;-47
2022/12/29 10:02:15;;;;;;;5.40;3.73;;;11.20;99.90;;;;;;5261966;28;21014;-53
2022/12/29 10:04:45;;;;;;;3.03;2.73;;;11.30;99.90;;;;;;5261959;28;20889;-49
2022/12/29 10:08:01;;;;;;;2.10;2.00;;;11.30;99.90;;;;;;5264721;28;20455;-47
2022/12/29 10:10:50;;;;;;;1.13;1.13;;;11.30;99.90;;;;;;5237576;28;20276;-49
2022/12/29 10:13:50;;;;;;;7.03;1.90;;;11.50;99.90;;;;;;5276540;28;20442;-48
2022/12/29 10:16:32;;;;;;;1.80;1.70;;;11.50;99.90;;;;;;5263973;28;20812;-49
2022/12/29 10:19:34;;;;;;;1.43;1.33;;;11.40;99.90;;;;;;5268390;28;20525;-49
2022/12/29 10:22:18;;;;;;;2.67;2.57;;;11.30;99.90;;;;;;5259709;28;20896;-48
2022/12/29 10:24:53;;;;;;;2.97;1.90;;;11.30;99.90;;;;;;5268787;28;20483;-53
2022/12/29 10:27:24;;;;;;;2.40;2.30;;;11.30;99.90;;;;;;5266621;28;20459;-49
2022/12/29 10:29:57;;;;;;;1.67;1.57;;;11.30;99.90;;;;;;5266300;28;20521;-48
2022/12/29 10:32:38;;;;;;;2.57;2.37;;;11.30;99.90;;;;;;5265636;28;20427;-48
2022/12/29 10:35:21;;;;;;;1.30;1.30;;;11.50;99.90;;;;;;5266166;28;20470;-52
2022/12/29 10:38:31;;;;;;;5.90;3.30;;;11.60;99.90;;;;;;5262650;28;21029;-52
2022/12/29 10:41:32;;;;;;;17.50;4.23;;;11.80;99.90;;;;;;5235232;28;20442;-48
2022/12/29 10:44:03;;;;;;;3.20;3.00;;;12.10;99.90;;;;;;5262709;28;20433;-47
2022/12/29 10:46:36;;;;;;;2.60;2.40;;;12.30;99.90;;;;;;5266981;28;20434;-49
2022/12/29 10:49:15;;;;;;;6.00;3.30;;;12.40;99.90;;;;;;5259514;28;20209;-51
2022/12/29 10:51:48;;;;;;;3.67;3.20;;;12.50;99.90;;;;;;5269294;28;20518;-54
2022/12/29 10:54:27;;;;;;;3.73;3.33;;;12.60;99.90;;;;;;5268716;28;20473;-49
2022/12/29 10:57:08;;;;;;;1.53;1.43;;;12.50;99.90;;;;;;5269727;28;20431;-49
2022/12/29 10:59:39;;;;;;;3.93;2.10;;;12.40;99.90;;;;;;5270337;28;20934;-50
2022/12/29 11:02:09;;;;;;;1.40;1.30;;;12.40;99.90;;;;;;5267258;28;20432;-48
2022/12/29 11:05:04;;;;;;;3.10;1.57;;;12.40;99.90;;;;;;5270711;28;20439;-51
2022/12/29 11:07:35;;;;;;;3.87;1.77;;;12.50;99.90;;;;;;5261050;28;20205;-48
2022/12/29 11:10:29;;;;;;;2.77;2.57;;;12.50;99.90;;;;;;5257773;28;20499;-49
2022/12/29 11:13:24;;;;;;;6.77;2.20;;;12.50;99.90;;;;;;5263118;28;20853;-51
2022/12/29 11:15:55;;;;;;;5.40;1.70;;;12.60;99.90;;;;;;5264897;28;20488;-50
2022/12/29 11:18:40;;;;;;;4.63;1.67;;;12.50;99.90;;;;;;5269936;28;20459;-50
2022/12/29 11:21:41;;;;;;;1.60;1.50;;;12.40;99.90;;;;;;5261626;28;20182;-50
2022/12/29 11:24:23;;;;;;;1.40;1.30;;;12.40;99.90;;;;;;5261421;28;20445;-48
2022/12/29 11:26:59;;;;;;;1.87;1.67;;;12.40;99.90;;;;;;5274737;27;20431;-50
2022/12/29 11:29:38;;;;;;;2.47;2.10;;;12.40;99.90;;;;;;5265554;28;20439;-49
2022/12/29 11:32:18;;;;;;;3.87;3.00;;;12.40;99.90;;;;;;5267108;28;20927;-48
2022/12/29 11:34:49;;;;;;;1.10;1.10;;;12.40;99.90;;;;;;5263629;28;20573;-51
2022/12/29 11:37:28;;;;;;;2.20;1.30;;;12.40;99.90;;;;;;5269982;28;20533;-49
2022/12/29 11:40:05;;;;;;;1.37;1.27;;;12.30;99.90;;;;;;5272738;28;20268;-52
2022/12/29 11:42:42;;;;;;;1.43;1.10;;;12.30;99.90;;;;;;5274705;28;20420;-49
2022/12/29 11:45:16;;;;;;;0.90;0.90;;;12.30;99.90;;;;;;5281779;28;20434;-48
2022/12/29 11:47:59;;;;;;;1.53;1.07;;;12.30;99.90;;;;;;5272175;28;20547;-50
2022/12/29 11:50:33;;;;;;;2.53;1.50;;;12.30;99.90;;;;;;5276902;28;20763;-51
2022/12/29 11:53:13;;;;;;;0.80;0.80;;;12.20;99.90;;;;;;5275568;28;20442;-49
2022/12/29 11:56:04;;;;;;;1.53;1.27;;;12.20;99.90;;;;;;5265625;28;20797;-54
2022/12/29 11:58:37;;;;;;;1.20;1.20;;;12.20;99.90;;;;;;5281959;28;20450;-51
2022/12/29 12:01:27;;;;;;;1.90;1.23;;;12.10;99.90;;;;;;5279914;28;20510;-49
2022/12/29 12:04:13;;;;;;;1.30;1.20;;;12.10;99.90;;;;;;5270308;28;20473;-47
2022/12/29 12:07:02;;;;;;;2.00;1.57;;;12.20;99.90;;;;;;5270805;28;20752;-48
2022/12/29 12:09:37;;;;;;;0.97;0.73;;;12.00;99.90;;;;;;5271484;28;20431;-49
2022/12/29 12:12:15;;;;;;;1.00;0.90;;;11.90;99.90;;;;;;5280375;28;20441;-50
2022/12/29 12:15:00;;;;;;;1.17;0.97;;;11.70;99.90;;;;;;5267813;28;20462;-48
2022/12/29 12:17:38;;;;;;;0.57;0.57;;;11.50;99.90;;;;;;5275164;28;20472;-49
2022/12/29 12:20:18;;;;;;;0.83;0.83;;;11.30;99.90;;;;;;5276659;28;20453;-48
2022/12/29 12:23:13;;;;;;;3.70;1.40;;;11.10;99.90;;;;;;5275156;28;20462;-47
2022/12/29 12:26:04;;;;;;;2.10;1.27;;;11.00;99.90;;;;;;5268299;28;20419;-51
2022/12/29 12:28:43;;;;;;;1.60;0.90;;;10.80;99.90;;;;;;5259379;28;20485;-49
2022/12/29 12:31:24;;;;;;;0.70;0.70;;;10.70;99.90;;;;;;5269069;28;20419;-51
2022/12/29 12:34:04;;;;;;;1.67;1.10;;;10.70;99.90;;;;;;5278660;28;20456;-48
2022/12/29 12:37:00;;;;;;;1.07;1.07;;;10.60;99.90;;;;;;5269895;28;20420;-47
2022/12/29 12:39:59;;;;;;;0.97;0.97;;;10.70;99.90;;;;;;5281215;28;20442;-48
2022/12/29 12:42:42;;;;;;;2.03;0.87;;;10.70;99.90;;;;;;5270587;28;20457;-51
2022/12/29 12:45:26;;;;;;;1.97;1.33;;;10.70;99.90;;;;;;5274784;28;20431;-48
2022/12/29 12:48:32;;;;;;;3.70;1.00;;;10.70;99.90;;;;;;5276358;28;20450;-48
2022/12/29 12:51:21;;;;;;;0.60;0.60;;;10.80;99.90;;;;;;5272620;28;20443;-47
2022/12/29 12:54:28;;;;;;;0.90;0.90;;;10.80;99.90;;;;;;5276790;28;20567;-49
2022/12/29 12:57:01;;;;;;;0.77;0.77;;;10.90;99.90;;;;;;5269766;28;20445;-51
2022/12/29 12:59:46;;;;;;;1.90;1.13;;;10.90;99.90;;;;;;5268825;28;20447;-50
2022/12/29 13:02:50;;;;;;;0.63;0.43;;;10.70;99.90;;;;;;5267632;28;20424;-49
2022/12/29 13:05:29;;;;;;;0.60;0.60;;;10.80;99.90;;;;;;5267774;28;20431;-49
2022/12/29 13:08:11;;;;;;;1.03;0.83;;;10.70;99.90;;;;;;5268191;28;20501;-48
2022/12/29 13:11:02;;;;;;;1.80;0.70;;;10.70;99.90;;;;;;5268477;28;20958;-49
2022/12/29 13:13:53;;;;;;;1.20;1.20;;;10.60;99.90;;;;;;5261110;28;20420;-49
2022/12/29 13:17:01;;;;;;;1.03;0.87;;;10.50;99.90;;;;;;5274967;28;20400;-48
2022/12/29 13:20:04;;;;;;;1.60;1.50;;;10.60;99.90;;;;;;5280466;28;20427;-50
2022/12/29 13:22:55;;;;;;;1.27;1.13;;;10.50;99.90;;;;;;5265934;28;20420;-48
2022/12/29 13:25:56;;;;;;;1.47;1.37;;;10.50;99.90;;;;;;5265979;28;20923;-48
2022/12/29 13:28:35;;;;;;;3.23;0.90;;;10.40;99.90;;;;;;5266980;28;20459;-50
2022/12/29 13:31:09;;;;;;;1.17;1.17;;;10.30;99.90;;;;;;5271408;28;20427;-48
2022/12/29 13:34:17;;;;;;;1.40;1.40;;;10.30;99.90;;;;;;5263146;28;20547;-50
2022/12/29 13:37:08;;;;;;;1.10;1.00;;;10.30;99.90;;;;;;5273004;28;20424;-49
2022/12/29 13:39:42;;;;;;;3.40;1.50;;;10.20;99.90;;;;;;5262897;28;20430;-49
2022/12/29 13:42:14;;;;;;;3.13;1.00;;;10.10;99.90;;;;;;5264006;28;20938;-49
2022/12/29 13:45:02;;;;;;;6.87;5.63;;;10.10;99.90;;;;;;5259999;28;20588;-49
2022/12/29 13:47:36;;;;;;;2.43;1.80;;;10.20;99.90;;;;;;5266131;28;20458;-47
2022/12/29 13:50:20;;;;;;;2.20;1.97;;;10.10;99.90;;;;;;5252252;28;20476;-49
2022/12/29 13:53:09;;;;;;;1.07;1.07;;;10.00;99.90;;;;;;5263776;28;20428;-50
2022/12/29 13:55:51;;;;;;;1.13;1.13;;;10.10;99.90;;;;;;5274497;28;21050;-49
2022/12/29 13:58:41;;;;;;;2.10;1.30;;;10.10;99.90;;;;;;5262466;28;20967;-49
2022/12/29 14:01:27;;;;;;;7.90;1.47;;;10.00;99.90;;;;;;5264571;28;20472;-52
2022/12/29 14:04:00;;;;;;;1.60;1.50;;;10.00;99.90;;;;;;5268284;28;20931;-49
2022/12/29 14:06:34;;;;;;;1.30;1.20;;;10.20;99.90;;;;;;5263434;28;20432;-49
2022/12/29 14:09:22;;;;;;;2.07;1.30;;;10.10;99.90;;;;;;5262451;28;20970;-50